Kawasaki, Japan
Current Conditions -  °F | °C
As of 2:30 PM on Tuesday 21 Oct 2014 (Local Time) from RJTT Reporting Station
Broken Clouds Broken Clouds  
Wind Chill: 70°   Ceiling: 3000
Heat Index: 70°   Visibility: 6mi
Dew Point: 63°   Wind: 20mph
Humidity: 78%   Direction: 200°SSW
Pressure: 29.94"   Gusts: NA
Location:  35.53°N, 139.7°E
Report Text: RJTT 210530Z 20017KT 9999 FEW015 BKN030 BKN140 21/17 Q1014 TEMPO 19016G26KT RMK 1CU015 5CU030 6AC140 A2995
Loading
Personal Weather Stations






























Interactive Weather Map
Tropical Storm Tracking
New forecast layout! Learn more

10-Day Weather Forecast

Advertisements
Track Severe Weather on mobile